Time;durP1;ratioP1;P1;durP2;ratioP2;P2;SDS_P1;SDS_P2;PMS_P1;PMS_P2;Temp;Humidity;BMP_temperature;BMP_pressure;BME280_temperature;BME280_humidity;BME280_pressure;Samples;Min_cycle;Max_cycle;Signal;HPM_P1;HPM_P2
2022/04/16 00:01:37;;;;;;;23.08;14.45;;;8.70;99.90;;;;;;5074033;28;20033;-52
2022/04/16 00:04:03;;;;;;;20.17;14.48;;;8.70;99.90;;;;;;5074173;28;20045;-51
2022/04/16 00:06:29;;;;;;;23.23;14.88;;;8.70;99.90;;;;;;5074076;28;20041;-51
2022/04/16 00:08:55;;;;;;;20.55;14.18;;;8.60;99.90;;;;;;5073965;28;20037;-51
2022/04/16 00:11:20;;;;;;;21.77;15.82;;;8.60;99.90;;;;;;5073947;28;20044;-51
2022/04/16 00:13:50;;;;;;;21.02;14.02;;;8.60;99.90;;;;;;5073714;28;20048;-52
2022/04/16 00:16:17;;;;;;;23.90;15.23;;;8.50;99.90;;;;;;5073578;28;20052;-51
2022/04/16 00:18:44;;;;;;;21.25;14.07;;;8.40;99.90;;;;;;5073461;28;20500;-52
2022/04/16 00:21:10;;;;;;;22.77;14.13;;;8.40;99.90;;;;;;5073649;28;20040;-51
2022/04/16 00:23:37;;;;;;;20.08;14.05;;;8.30;99.90;;;;;;5063202;28;20072;-55
2022/04/16 00:26:03;;;;;;;20.60;14.90;;;8.20;99.90;;;;;;5053434;28;20094;-53
2022/04/16 00:28:30;;;;;;;21.63;13.57;;;8.10;99.90;;;;;;5053470;28;20033;-53
2022/04/16 00:30:59;;;;;;;24.23;14.07;;;8.10;99.90;;;;;;5053426;28;20091;-52
2022/04/16 00:33:25;;;;;;;21.08;13.38;;;8.00;99.90;;;;;;5053198;28;20033;-55
2022/04/16 00:35:51;;;;;;;20.98;13.32;;;8.00;99.90;;;;;;5053499;28;20098;-55
2022/04/16 00:38:17;;;;;;;19.38;13.20;;;7.90;99.90;;;;;;5085829;28;20044;-52
2022/04/16 00:40:43;;;;;;;21.15;13.40;;;7.80;99.90;;;;;;5051788;28;20132;-52
2022/04/16 00:43:20;;;;;;;23.95;14.80;;;7.80;99.90;;;;;;5051638;28;20044;-51
2022/04/16 00:45:47;;;;;;;21.23;13.32;;;7.70;99.90;;;;;;5053084;28;20041;-52
2022/04/16 00:48:13;;;;;;;19.23;12.90;;;7.60;99.90;;;;;;5053231;28;20095;-54
2022/04/16 00:50:39;;;;;;;21.73;14.10;;;7.60;99.90;;;;;;5052840;28;20045;-51
2022/04/16 00:53:06;;;;;;;20.55;13.48;;;7.60;99.90;;;;;;5067265;28;20044;-54
2022/04/16 00:55:36;;;;;;;21.23;14.18;;;7.60;99.90;;;;;;5072816;28;20525;-52
2022/04/16 00:58:02;;;;;;;20.30;14.25;;;7.50;99.90;;;;;;5072751;28;20040;-50
2022/04/16 01:00:28;;;;;;;21.63;15.10;;;7.50;99.90;;;;;;5072913;28;20036;-51
2022/04/16 01:02:56;;;;;;;22.23;14.45;;;7.50;99.90;;;;;;5072808;28;20048;-54
2022/04/16 01:05:22;;;;;;;22.38;14.32;;;7.50;99.90;;;;;;5072889;28;20040;-54
2022/04/16 01:07:57;;;;;;;20.38;14.27;;;7.50;99.90;;;;;;5072894;28;20044;-52
2022/04/16 01:10:28;;;;;;;24.00;15.18;;;7.40;99.90;;;;;;5072575;28;20181;-54
2022/04/16 01:12:56;;;;;;;21.60;14.70;;;7.40;99.90;;;;;;5073063;28;20433;-53
2022/04/16 01:15:23;;;;;;;21.85;14.10;;;7.30;99.90;;;;;;5072640;28;20029;-52
2022/04/16 01:17:50;;;;;;;23.30;14.82;;;7.30;99.90;;;;;;5072491;28;20028;-51
2022/04/16 01:20:17;;;;;;;25.20;15.65;;;7.30;99.90;;;;;;5072513;28;20052;-54
2022/04/16 01:22:45;;;;;;;22.08;14.00;;;7.30;99.90;;;;;;5069307;28;20052;-54
2022/04/16 01:25:11;;;;;;;23.27;15.77;;;7.30;99.90;;;;;;5052498;28;20063;-54
2022/04/16 01:27:39;;;;;;;23.15;14.95;;;7.30;99.90;;;;;;5052727;28;20048;-54
2022/04/16 01:30:05;;;;;;;24.88;15.68;;;7.30;99.90;;;;;;5052378;28;20045;-54
2022/04/16 01:32:34;;;;;;;25.80;16.05;;;7.30;99.90;;;;;;5052496;28;20033;-51
2022/04/16 01:35:00;;;;;;;23.02;15.02;;;7.30;99.90;;;;;;5050914;28;20132;-54
2022/04/16 01:37:31;;;;;;;21.67;14.68;;;7.20;99.90;;;;;;5052560;28;20128;-51
2022/04/16 01:39:58;;;;;;;24.93;15.77;;;7.20;99.90;;;;;;5034710;28;20149;-51
2022/04/16 01:42:24;;;;;;;21.60;14.82;;;7.20;99.90;;;;;;5052219;28;20087;-50
2022/04/16 01:44:51;;;;;;;24.00;15.32;;;7.10;99.90;;;;;;5052261;28;20041;-52
2022/04/16 01:47:17;;;;;;;23.67;15.30;;;7.10;99.90;;;;;;5052322;28;20084;-51
2022/04/16 01:49:43;;;;;;;25.13;15.50;;;7.10;99.90;;;;;;5052185;28;20069;-51
2022/04/16 01:52:09;;;;;;;28.10;15.80;;;7.10;99.90;;;;;;5058933;28;20040;-51
2022/04/16 01:54:35;;;;;;;21.48;14.65;;;7.00;99.90;;;;;;5070215;28;20473;-52
2022/04/16 01:57:02;;;;;;;24.25;14.93;;;7.00;99.90;;;;;;5072251;28;20064;-54
2022/04/16 01:59:29;;;;;;;21.58;14.02;;;6.90;99.90;;;;;;5070859;28;20548;-51
2022/04/16 02:01:56;;;;;;;22.25;14.52;;;6.90;99.90;;;;;;5071036;28;20051;-51
2022/04/16 02:04:22;;;;;;;25.10;14.85;;;6.90;99.90;;;;;;5070901;28;20123;-54
2022/04/16 02:06:51;;;;;;;21.85;15.27;;;6.80;99.90;;;;;;5071985;28;20097;-54
2022/04/16 02:09:17;;;;;;;24.20;15.00;;;6.80;99.90;;;;;;5070764;28;20396;-54
2022/04/16 02:11:43;;;;;;;24.15;14.93;;;6.80;99.90;;;;;;5072116;28;20036;-54
2022/04/16 02:14:09;;;;;;;24.23;15.07;;;6.80;99.90;;;;;;5070873;28;20036;-51
2022/04/16 02:16:35;;;;;;;22.75;15.48;;;6.70;99.90;;;;;;5053851;28;20500;-51
2022/04/16 02:19:01;;;;;;;22.75;14.65;;;6.80;99.90;;;;;;5072188;28;20388;-52
2022/04/16 02:21:27;;;;;;;24.08;15.07;;;6.70;99.90;;;;;;5071809;28;20542;-54
2022/04/16 02:23:54;;;;;;;24.63;16.38;;;6.60;99.90;;;;;;5058991;28;20497;-51
2022/04/16 02:26:22;;;;;;;23.95;14.27;;;6.60;99.90;;;;;;5052040;28;20396;-51
2022/04/16 02:28:48;;;;;;;24.05;15.30;;;6.60;99.90;;;;;;5051997;28;20047;-51
2022/04/16 02:31:14;;;;;;;22.92;14.75;;;6.60;99.90;;;;;;5051680;28;20409;-51
2022/04/16 02:33:41;;;;;;;23.10;15.50;;;6.50;99.90;;;;;;5051579;28;20512;-51
2022/04/16 02:36:07;;;;;;;21.60;14.98;;;6.40;99.90;;;;;;5051596;28;20045;-51
2022/04/16 02:38:36;;;;;;;22.23;15.57;;;6.50;99.90;;;;;;5051661;28;20515;-51
2022/04/16 02:41:02;;;;;;;21.58;14.73;;;6.40;99.90;;;;;;5051726;28;20110;-51
2022/04/16 02:43:27;;;;;;;21.08;14.55;;;6.40;99.90;;;;;;5051709;28;20044;-50
2022/04/16 02:48:37;;;;;;;23.38;14.25;;;6.30;99.90;;;;;;5067117;28;20052;-51
2022/04/16 02:51:03;;;;;;;20.50;14.30;;;6.40;99.90;;;;;;5051731;28;20041;-53
2022/04/16 02:53:29;;;;;;;21.73;14.52;;;6.40;99.90;;;;;;5068134;28;20033;-50
2022/04/16 02:55:56;;;;;;;21.25;14.07;;;6.30;99.90;;;;;;5071679;28;20051;-53
2022/04/16 02:58:22;;;;;;;21.40;14.57;;;6.40;99.90;;;;;;5070378;28;20347;-54
2022/04/16 03:00:48;;;;;;;22.67;15.88;;;6.50;99.90;;;;;;5071683;28;20037;-51
2022/04/16 03:03:14;;;;;;;24.30;15.90;;;6.50;99.90;;;;;;5071534;28;20041;-50
2022/04/16 03:05:41;;;;;;;25.20;15.80;;;6.50;99.90;;;;;;5071886;28;20136;-51
2022/04/16 03:08:11;;;;;;;27.38;17.17;;;6.60;99.90;;;;;;5073800;28;20041;-51
2022/04/16 03:10:36;;;;;;;26.67;17.55;;;6.70;99.90;;;;;;5073819;28;20077;-52
2022/04/16 03:13:02;;;;;;;26.67;16.90;;;6.80;99.90;;;;;;5073799;28;20561;-50
2022/04/16 03:18:12;;;;;;;27.42;17.70;;;6.80;99.90;;;;;;5075224;28;20094;-54
2022/04/16 03:20:40;;;;;;;27.33;18.88;;;6.90;99.90;;;;;;5074971;28;20455;-54
2022/04/16 03:23:06;;;;;;;29.50;19.13;;;7.00;99.90;;;;;;5074824;28;20045;-52
2022/04/16 03:25:32;;;;;;;28.75;19.88;;;7.20;99.90;;;;;;5074720;28;20059;-52
2022/04/16 03:27:58;;;;;;;29.30;19.52;;;7.30;99.90;;;;;;5074701;28;20044;-54
2022/04/16 03:30:24;;;;;;;31.17;19.85;;;7.30;99.90;;;;;;5074715;28;20105;-55
2022/04/16 03:32:51;;;;;;;30.05;20.08;;;7.30;99.90;;;;;;5074603;28;20037;-54
2022/04/16 03:35:19;;;;;;;28.70;20.48;;;7.50;99.90;;;;;;5074538;28;20052;-54
2022/04/16 03:37:45;;;;;;;30.73;21.15;;;7.50;99.90;;;;;;5074531;28;20051;-55
2022/04/16 03:40:12;;;;;;;30.17;21.08;;;7.50;99.90;;;;;;5074430;28;20037;-54
2022/04/16 03:42:49;;;;;;;31.17;21.30;;;7.50;99.90;;;;;;5074220;28;20415;-52
2022/04/16 03:45:23;;;;;;;32.65;22.85;;;7.60;99.90;;;;;;5074835;28;20048;-50
2022/04/16 03:47:49;;;;;;;34.67;21.50;;;7.60;99.90;;;;;;5073153;28;20048;-52
2022/04/16 03:50:19;;;;;;;32.70;22.20;;;7.70;99.90;;;;;;5074377;28;20044;-54
2022/04/16 03:52:47;;;;;;;31.88;22.13;;;7.70;99.90;;;;;;5073995;28;20123;-54
2022/04/16 04:00:48;;;;;;;38.22;24.05;;;7.80;99.90;;;;;;5074309;28;20089;-54
2022/04/16 04:03:14;;;;;;;34.92;23.27;;;7.80;99.90;;;;;;5073950;28;20119;-53
2022/04/16 04:05:41;;;;;;;36.67;24.48;;;7.80;99.90;;;;;;5073804;28;20041;-53
2022/04/16 04:08:09;;;;;;;34.95;23.20;;;7.80;99.90;;;;;;5074037;28;20044;-52
2022/04/16 04:10:38;;;;;;;34.03;22.90;;;7.80;99.90;;;;;;5073798;28;20507;-51
2022/04/16 04:13:04;;;;;;;31.98;22.95;;;7.80;99.90;;;;;;5073666;28;20032;-51
2022/04/16 04:15:31;;;;;;;34.50;23.45;;;7.80;99.90;;;;;;5073775;28;20385;-51
2022/04/16 04:17:58;;;;;;;37.40;24.67;;;7.80;99.90;;;;;;5072938;28;20052;-51
2022/04/16 04:20:25;;;;;;;34.95;23.65;;;7.80;99.90;;;;;;5073924;28;20178;-51
2022/04/16 04:22:51;;;;;;;37.92;24.67;;;7.80;99.90;;;;;;5069540;28;20421;-51
2022/04/16 04:25:16;;;;;;;35.50;24.17;;;7.80;99.90;;;;;;5053604;28;20053;-51
2022/04/16 04:27:42;;;;;;;37.67;24.95;;;7.90;99.90;;;;;;5053625;28;20080;-51
2022/04/16 04:30:09;;;;;;;37.40;24.83;;;7.80;99.90;;;;;;5053748;28;20051;-52
2022/04/16 04:32:36;;;;;;;39.45;24.80;;;7.80;99.90;;;;;;5052098;28;20087;-54
2022/04/16 04:35:03;;;;;;;40.08;25.33;;;7.70;99.90;;;;;;5053316;28;20515;-51
2022/04/16 04:37:29;;;;;;;38.90;26.38;;;7.80;99.90;;;;;;5053654;28;20127;-54
2022/04/16 04:39:55;;;;;;;38.65;26.15;;;7.70;99.90;;;;;;5053425;28;20077;-54
2022/04/16 04:42:25;;;;;;;41.10;25.42;;;7.70;99.90;;;;;;5053123;28;20548;-51
2022/04/16 04:44:51;;;;;;;39.25;26.60;;;7.60;99.90;;;;;;5053066;28;20076;-54
2022/04/16 04:47:17;;;;;;;39.83;27.10;;;7.70;99.90;;;;;;5085607;28;20076;-52
2022/04/16 04:49:42;;;;;;;43.25;29.30;;;7.60;99.90;;;;;;5052266;28;20052;-53
2022/04/16 04:52:09;;;;;;;45.17;30.13;;;7.80;99.90;;;;;;5059723;28;20037;-51
2022/04/16 04:54:34;;;;;;;42.05;27.83;;;7.70;99.90;;;;;;5073155;28;20043;-53
2022/04/16 04:57:02;;;;;;;42.97;28.88;;;7.60;99.90;;;;;;5072983;28;20032;-51
2022/04/16 04:59:28;;;;;;;43.65;28.38;;;7.70;99.90;;;;;;5071967;28;20048;-54
2022/04/16 05:01:54;;;;;;;46.40;28.52;;;7.70;99.90;;;;;;5054901;28;20103;-54
2022/04/16 05:04:19;;;;;;;44.38;29.42;;;7.60;99.90;;;;;;5071517;28;20047;-53
2022/04/16 05:06:45;;;;;;;42.55;27.40;;;7.70;99.90;;;;;;5072777;28;20055;-52
2022/04/16 05:09:11;;;;;;;41.58;27.38;;;7.60;99.90;;;;;;5071373;28;20044;-56
2022/04/16 05:11:37;;;;;;;42.20;27.65;;;7.60;99.90;;;;;;5072570;28;20033;-51
2022/04/16 05:14:03;;;;;;;43.35;29.25;;;7.70;99.90;;;;;;5072570;28;20079;-53
2022/04/16 05:16:28;;;;;;;41.92;28.63;;;7.70;99.90;;;;;;5072898;28;20036;-50
2022/04/16 05:18:54;;;;;;;40.35;27.08;;;7.60;99.90;;;;;;5072740;28;20047;-50
2022/04/16 05:21:20;;;;;;;44.03;28.83;;;7.60;99.90;;;;;;5072706;28;20040;-50
2022/04/16 05:23:45;;;;;;;43.25;28.38;;;7.70;99.90;;;;;;5060814;28;20095;-53
2022/04/16 05:26:12;;;;;;;43.83;28.73;;;7.60;99.90;;;;;;5052857;28;20044;-51
2022/04/16 05:28:38;;;;;;;44.70;28.05;;;7.60;99.90;;;;;;5052359;28;20044;-53
2022/04/16 05:31:05;;;;;;;47.03;30.38;;;7.70;99.90;;;;;;5052009;28;20489;-54
2022/04/16 05:36:17;;;;;;;44.35;29.05;;;7.70;99.90;;;;;;5052358;28;20379;-51
2022/04/16 05:38:42;;;;;;;40.30;26.88;;;7.60;99.90;;;;;;5052375;28;20102;-54
2022/04/16 05:41:08;;;;;;;41.45;26.95;;;7.60;99.90;;;;;;5052449;28;20481;-54
2022/04/16 05:43:34;;;;;;;36.35;24.02;;;7.70;99.90;;;;;;5052106;28;20401;-54
2022/04/16 05:46:00;;;;;;;36.55;25.05;;;7.70;99.90;;;;;;5052406;28;20098;-54
2022/04/16 05:48:25;;;;;;;37.05;24.52;;;7.70;99.90;;;;;;5052408;28;20069;-51
2022/04/16 05:50:51;;;;;;;36.90;24.33;;;7.80;99.90;;;;;;5052057;28;20405;-51
2022/04/16 05:53:18;;;;;;;34.90;23.85;;;7.70;99.90;;;;;;5067525;28;20065;-52
2022/04/16 05:55:48;;;;;;;35.45;22.52;;;7.80;99.90;;;;;;5052124;28;20040;-55
2022/04/16 05:58:15;;;;;;;33.50;21.58;;;7.80;99.90;;;;;;5052403;28;20044;-54
2022/04/16 06:00:40;;;;;;;31.50;20.92;;;7.80;99.90;;;;;;5052201;28;20041;-55
2022/04/16 06:03:07;;;;;;;32.28;20.80;;;7.90;99.90;;;;;;5050988;28;20056;-51
2022/04/16 06:05:32;;;;;;;28.77;19.65;;;7.90;99.90;;;;;;5052201;28;20041;-54
2022/04/16 06:07:59;;;;;;;30.02;19.95;;;7.90;99.90;;;;;;5052201;28;20455;-50
2022/04/16 06:10:25;;;;;;;30.38;19.10;;;8.00;99.90;;;;;;5051962;28;20432;-52
2022/04/16 06:12:51;;;;;;;29.35;20.75;;;8.10;99.90;;;;;;5050954;28;20037;-52
2022/04/16 06:15:16;;;;;;;32.22;20.98;;;8.10;99.90;;;;;;5052307;28;20091;-53
2022/04/16 06:17:42;;;;;;;27.33;19.30;;;8.10;99.90;;;;;;5051948;28;20516;-54
2022/04/16 06:20:08;;;;;;;27.67;19.00;;;8.10;99.90;;;;;;5050782;28;20045;-52
2022/04/16 06:22:35;;;;;;;30.80;19.70;;;8.10;99.90;;;;;;5051782;28;20485;-50
2022/04/16 06:25:01;;;;;;;28.30;18.13;;;8.10;99.90;;;;;;5067289;28;20076;-53
2022/04/16 06:27:26;;;;;;;29.30;18.35;;;8.10;99.90;;;;;;5052112;28;20472;-54
2022/04/16 06:29:52;;;;;;;25.55;17.85;;;8.20;99.90;;;;;;5051634;28;20079;-51
2022/04/16 06:32:18;;;;;;;29.00;17.92;;;8.30;99.90;;;;;;5052079;28;20037;-53
2022/04/16 06:34:44;;;;;;;30.00;18.48;;;8.40;99.90;;;;;;5050449;28;20060;-53
2022/04/16 06:37:10;;;;;;;30.15;18.88;;;8.40;99.90;;;;;;5051720;28;20052;-50
2022/04/16 06:39:35;;;;;;;26.65;18.73;;;8.40;99.90;;;;;;5051664;28;20056;-50
2022/04/16 06:42:01;;;;;;;31.17;19.70;;;8.40;99.90;;;;;;5054163;28;20132;-50
2022/04/16 06:44:27;;;;;;;26.98;17.48;;;8.50;99.90;;;;;;5055874;28;20029;-52
2022/04/16 06:46:54;;;;;;;30.13;19.25;;;8.50;99.90;;;;;;5055375;28;20051;-53
2022/04/16 06:49:21;;;;;;;29.33;19.10;;;8.40;99.90;;;;;;5055420;28;20041;-51
2022/04/16 06:51:47;;;;;;;28.13;18.67;;;8.60;99.90;;;;;;5058999;28;21029;-50
2022/04/16 06:54:13;;;;;;;28.25;18.05;;;8.60;99.90;;;;;;5075307;28;20082;-50
2022/04/16 06:56:38;;;;;;;27.95;19.20;;;8.80;99.90;;;;;;5057295;28;20044;-54
2022/04/16 06:59:05;;;;;;;30.33;19.85;;;8.80;99.90;;;;;;5075400;28;20400;-54
2022/04/16 07:01:31;;;;;;;27.50;18.20;;;8.90;99.90;;;;;;5057530;28;20067;-53
2022/04/16 07:03:56;;;;;;;25.00;17.23;;;9.00;99.90;;;;;;5074096;28;20040;-54
2022/04/16 07:06:22;;;;;;;23.88;16.15;;;9.00;99.90;;;;;;5074938;28;20072;-51
2022/04/16 07:08:48;;;;;;;25.23;16.90;;;9.10;99.90;;;;;;5074997;28;20044;-51
2022/04/16 07:11:13;;;;;;;26.95;17.17;;;9.10;99.90;;;;;;5074926;28;20052;-52
2022/04/16 07:13:39;;;;;;;25.02;16.15;;;9.20;99.90;;;;;;5075049;28;20036;-54
2022/04/16 07:16:05;;;;;;;25.50;16.75;;;9.10;99.90;;;;;;5074967;28;20389;-51
2022/04/16 07:18:30;;;;;;;19.90;13.57;;;9.20;99.90;;;;;;5074621;28;20040;-51
2022/04/16 07:20:56;;;;;;;26.20;15.00;;;9.20;99.90;;;;;;5073807;28;20544;-53
2022/04/16 07:23:22;;;;;;;20.67;14.05;;;9.30;99.90;;;;;;5065997;28;20072;-51
2022/04/16 07:25:47;;;;;;;22.23;14.20;;;9.30;99.90;;;;;;5047342;28;20049;-51
2022/04/16 07:28:21;;;;;;;21.10;14.18;;;9.40;99.90;;;;;;5044548;28;20079;-53
2022/04/16 07:30:50;;;;;;;22.77;14.45;;;9.40;99.90;;;;;;5052960;28;20120;-52
2022/04/16 07:33:16;;;;;;;22.92;13.32;;;9.50;99.90;;;;;;5054579;28;20126;-50
2022/04/16 07:35:42;;;;;;;23.45;15.18;;;9.60;99.90;;;;;;5053116;28;20045;-51
2022/04/16 07:38:08;;;;;;;23.65;15.32;;;9.70;99.90;;;;;;5053000;28;20033;-54
2022/04/16 07:40:34;;;;;;;22.02;15.40;;;9.70;99.90;;;;;;5085320;28;20049;-53
2022/04/16 07:43:01;;;;;;;25.08;15.48;;;9.80;99.90;;;;;;5053275;28;20085;-52
2022/04/16 07:45:27;;;;;;;25.25;15.77;;;9.80;99.90;;;;;;5052934;28;20082;-54
2022/04/16 07:47:53;;;;;;;24.30;14.73;;;9.90;99.90;;;;;;5068272;28;20080;-50
2022/04/16 07:50:19;;;;;;;23.52;15.02;;;10.00;99.90;;;;;;5052780;28;20083;-53
2022/04/16 07:52:46;;;;;;;23.02;15.50;;;10.00;99.90;;;;;;5061719;28;20564;-53
2022/04/16 07:55:12;;;;;;;25.48;14.75;;;9.90;99.90;;;;;;5051126;28;20033;-53
2022/04/16 07:57:38;;;;;;;24.00;15.32;;;10.10;99.90;;;;;;5047940;28;20091;-50
2022/04/16 08:00:09;;;;;;;23.73;14.88;;;10.10;99.90;;;;;;5052447;28;20470;-51
2022/04/16 08:02:34;;;;;;;23.50;13.85;;;10.20;99.90;;;;;;5052763;28;20049;-52
2022/04/16 08:05:00;;;;;;;22.67;13.57;;;10.20;99.90;;;;;;5052284;28;20206;-52
2022/04/16 08:07:26;;;;;;;21.30;12.60;;;10.30;99.90;;;;;;5052955;28;20397;-51
2022/04/16 08:09:52;;;;;;;24.63;12.20;;;10.20;99.90;;;;;;5052192;28;20128;-53
2022/04/16 08:12:18;;;;;;;20.25;12.13;;;10.30;99.90;;;;;;5052317;28;20045;-54
2022/04/16 08:14:44;;;;;;;19.30;10.70;;;10.20;99.90;;;;;;5052284;28;20037;-52
2022/04/16 08:17:09;;;;;;;16.70;9.57;;;10.20;99.90;;;;;;5052170;28;20041;-54
2022/04/16 08:19:35;;;;;;;17.75;10.75;;;10.30;99.90;;;;;;5052065;28;20041;-51
2022/04/16 08:22:03;;;;;;;18.48;11.32;;;10.30;99.90;;;;;;5067484;28;20060;-50
2022/04/16 08:26:58;;;;;;;15.98;10.48;;;10.50;99.90;;;;;;5046982;28;20250;-53
2022/04/16 08:29:23;;;;;;;16.90;9.93;;;10.50;99.90;;;;;;5032097;28;20044;-51
2022/04/16 08:31:49;;;;;;;16.80;10.43;;;10.60;99.90;;;;;;5030637;28;20591;-52
2022/04/16 08:34:15;;;;;;;18.35;9.27;;;10.60;99.90;;;;;;5031929;28;20053;-58
2022/04/16 08:36:41;;;;;;;18.25;9.93;;;10.50;99.90;;;;;;5031986;28;20091;-57
2022/04/16 08:39:06;;;;;;;15.73;9.40;;;10.70;99.90;;;;;;5033803;28;20517;-57
2022/04/16 08:41:32;;;;;;;15.45;8.75;;;10.80;99.90;;;;;;5033209;28;20045;-57
2022/04/16 08:43:58;;;;;;;13.93;7.78;;;10.80;99.90;;;;;;5033284;28;20081;-57
2022/04/16 08:46:30;;;;;;;12.32;7.32;;;10.70;99.90;;;;;;5033079;28;20045;-57
2022/04/16 08:48:58;;;;;;;9.80;4.70;;;10.80;99.90;;;;;;5032857;28;20481;-56
2022/04/16 08:51:26;;;;;;;10.20;4.40;;;10.80;99.90;;;;;;5033801;28;20046;-57
2022/04/16 08:53:52;;;;;;;10.02;4.25;;;10.80;99.90;;;;;;5072881;28;20036;-56
2022/04/16 08:56:18;;;;;;;10.00;4.70;;;10.80;99.90;;;;;;5072860;28;20037;-56
2022/04/16 08:58:44;;;;;;;13.57;5.28;;;11.00;99.90;;;;;;5072879;28;20115;-56
2022/04/16 09:01:11;;;;;;;8.80;4.03;;;11.10;99.90;;;;;;5072624;28;20051;-57
2022/04/16 09:03:39;;;;;;;6.70;3.30;;;11.20;99.90;;;;;;5072483;28;20041;-57
2022/04/16 09:06:05;;;;;;;8.13;4.05;;;11.30;99.90;;;;;;5072979;28;20048;-58
2022/04/16 09:08:33;;;;;;;8.15;4.20;;;11.30;99.90;;;;;;5071329;28;20130;-58
2022/04/16 09:11:11;;;;;;;9.50;4.45;;;11.20;99.90;;;;;;5072520;28;20484;-59
2022/04/16 09:13:57;;;;;;;7.95;3.78;;;11.40;99.90;;;;;;5072546;28;20167;-57
2022/04/16 09:16:23;;;;;;;9.60;4.07;;;11.40;99.90;;;;;;5071009;28;20055;-57
2022/04/16 09:18:51;;;;;;;6.82;3.50;;;11.20;99.90;;;;;;5072601;28;20036;-57
2022/04/16 09:21:23;;;;;;;7.65;2.90;;;11.40;99.90;;;;;;5072414;28;20048;-55
2022/04/16 09:23:53;;;;;;;;;;;11.50;99.90;;;;;;5060462;28;20067;-55
2022/04/16 09:26:36;;;;;;;6.15;2.67;;;11.60;99.90;;;;;;5052430;28;20003;-55
2022/04/16 09:29:13;;;;;;;7.07;2.78;;;11.50;99.90;;;;;;5052294;28;20051;-55
2022/04/16 09:31:41;;;;;;;7.38;3.55;;;11.60;99.90;;;;;;5052243;28;20171;-55
2022/04/16 09:34:15;;;;;;;6.68;2.80;;;11.60;99.90;;;;;;5052287;28;20052;-56
2022/04/16 09:36:43;;;;;;;6.80;2.45;;;11.50;99.90;;;;;;5052162;28;20113;-56
2022/04/16 09:39:10;;;;;;;6.95;2.38;;;11.60;99.90;;;;;;5052331;28;20041;-56
2022/04/16 09:41:40;;;;;;;10.93;2.47;;;11.70;99.90;;;;;;5052378;28;20525;-56
2022/04/16 09:44:21;;;;;;;8.05;2.35;;;11.80;99.90;;;;;;5052304;28;20455;-56
2022/04/16 09:46:48;;;;;;;5.70;2.00;;;11.80;99.90;;;;;;5052094;28;20178;-56
2022/04/16 09:49:16;;;;;;;5.13;1.60;;;12.00;99.90;;;;;;5052003;28;20041;-56
2022/04/16 09:51:44;;;;;;;4.40;1.50;;;11.80;99.90;;;;;;5054652;28;20143;-54
2022/04/16 09:54:10;;;;;;;5.55;2.10;;;11.80;99.30;;;;;;5072108;28;20058;-56
2022/04/16 09:56:38;;;;;;;4.05;1.73;;;11.80;99.70;;;;;;5071048;28;20033;-55
2022/04/16 09:59:06;;;;;;;3.88;1.55;;;11.80;99.90;;;;;;5071989;28;20493;-56
2022/04/16 10:01:33;;;;;;;6.40;1.52;;;12.00;99.90;;;;;;5072056;28;20520;-56
2022/04/16 10:04:00;;;;;;;4.93;1.50;;;12.10;99.90;;;;;;5071953;28;20036;-56
2022/04/16 10:06:30;;;;;;;4.07;1.45;;;12.00;97.90;;;;;;5072138;28;20044;-56
2022/04/16 10:09:00;;;;;;;5.35;1.45;;;11.90;98.60;;;;;;5070677;28;20052;-56
2022/04/16 10:12:59;;;;;;;5.40;1.30;;;12.20;99.90;;;;;;5071852;28;20043;-55
2022/04/16 10:15:04;;;;;;;4.25;1.10;;;12.30;98.20;;;;;;5071839;28;20065;-56
2022/04/16 10:17:44;;;;;;;6.00;1.52;;;12.30;96.40;;;;;;5075663;28;20040;-56
2022/04/16 10:20:14;;;;;;;4.32;1.35;;;12.50;98.40;;;;;;5076024;28;20399;-56
2022/04/16 10:22:40;;;;;;;3.97;1.40;;;12.50;98.30;;;;;;5073413;28;20037;-56
2022/04/16 10:25:06;;;;;;;6.10;1.60;;;12.60;96.60;;;;;;5055797;28;20392;-57
2022/04/16 10:27:40;;;;;;;4.22;1.15;;;12.40;96.30;;;;;;5054648;28;20056;-56
2022/04/16 10:30:11;;;;;;;5.78;1.20;;;12.60;97.40;;;;;;5071152;28;20049;-56
2022/04/16 10:32:41;;;;;;;3.47;1.30;;;12.50;94.80;;;;;;5071378;28;20037;-56
2022/04/16 10:35:13;;;;;;;4.05;1.27;;;12.70;96.00;;;;;;5055360;28;20138;-56
2022/04/16 10:37:41;;;;;;;7.35;1.88;;;12.80;95.50;;;;;;5054389;28;20041;-56
2022/04/16 10:40:25;;;;;;;3.60;1.20;;;12.80;95.90;;;;;;5055534;28;20583;-56
2022/04/16 10:42:57;;;;;;;4.90;1.40;;;12.90;94.70;;;;;;5055548;28;20041;-56
2022/04/16 10:45:23;;;;;;;;;;;13.00;96.40;;;;;;5055864;28;20136;-56
2022/04/16 10:47:51;;;;;;;5.63;1.65;;;12.60;93.10;;;;;;5055275;28;19923;-55
2022/04/16 10:50:18;;;;;;;4.88;1.20;;;12.80;95.20;;;;;;5055157;28;20040;-56
2022/04/16 10:53:02;;;;;;;4.68;1.33;;;12.90;94.40;;;;;;5066793;28;20035;-58
2022/04/16 10:55:32;;;;;;;4.13;1.50;;;12.80;93.30;;;;;;5073808;28;20036;-56
2022/04/16 10:58:05;;;;;;;4.40;1.60;;;13.10;94.70;;;;;;5074905;28;20036;-56
2022/04/16 11:00:45;;;;;;;4.10;1.27;;;13.00;93.50;;;;;;5073755;28;20040;-56
2022/04/16 11:03:18;;;;;;;5.22;1.40;;;13.10;94.10;;;;;;5075196;28;20055;-57
2022/04/16 11:05:45;;;;;;;4.30;1.63;;;13.10;94.40;;;;;;5075372;28;20127;-57
2022/04/16 11:08:13;;;;;;;4.00;1.60;;;13.10;94.60;;;;;;5074844;28;20052;-57
2022/04/16 11:10:41;;;;;;;5.25;2.28;;;13.30;95.50;;;;;;5074741;28;20091;-57
2022/04/16 11:13:08;;;;;;;3.90;1.55;;;13.40;95.60;;;;;;5075036;28;20041;-57
2022/04/16 11:15:34;;;;;;;4.65;1.40;;;13.40;95.00;;;;;;5075020;28;20086;-57
2022/04/16 11:18:01;;;;;;;3.92;1.27;;;13.30;95.00;;;;;;5074834;28;20033;-57
2022/04/16 11:20:28;;;;;;;3.97;1.40;;;13.40;95.30;;;;;;5074500;28;20401;-57
2022/04/16 11:22:54;;;;;;;3.80;1.45;;;13.50;95.10;;;;;;5069924;28;20102;-56
2022/04/16 11:25:24;;;;;;;3.45;1.23;;;13.50;93.40;;;;;;5054923;28;20139;-57
2022/04/16 11:36:12;;;;;;;5.38;1.20;;;13.50;89.40;;;;;;5054388;28;20045;-57
2022/04/16 11:38:40;;;;;;;3.17;1.00;;;13.80;87.10;;;;;;5054470;28;20421;-57
2022/04/16 11:41:12;;;;;;;4.10;0.98;;;14.00;91.30;;;;;;5054595;28;20447;-56
2022/04/16 11:43:51;;;;;;;2.28;0.80;;;14.10;83.70;;;;;;5054666;28;20130;-56
2022/04/16 11:46:17;;;;;;;2.72;0.73;;;14.10;79.60;;;;;;5054404;28;20045;-56
2022/04/16 11:48:46;;;;;;;2.97;0.90;;;13.90;77.10;;;;;;5069744;28;20564;-56
2022/04/16 11:51:17;;;;;;;4.68;1.52;;;14.00;76.60;;;;;;5054340;28;20052;-57
2022/04/16 11:53:51;;;;;;;2.88;1.00;;;13.80;77.50;;;;;;5072319;28;20500;-56
2022/04/16 11:56:20;;;;;;;4.53;1.05;;;13.90;79.50;;;;;;5074145;28;20044;-56
2022/04/16 11:58:52;;;;;;;4.03;0.85;;;13.90;77.00;;;;;;5074230;28;20075;-56
2022/04/16 12:01:24;;;;;;;3.97;1.13;;;14.10;77.70;;;;;;5074038;28;20920;-56
2022/04/16 12:03:56;;;;;;;3.53;1.00;;;14.10;76.60;;;;;;5074035;28;20048;-56
2022/04/16 12:06:22;;;;;;;3.50;1.05;;;14.00;78.00;;;;;;5073792;28;20043;-56
2022/04/16 12:08:50;;;;;;;3.45;1.02;;;14.00;79.50;;;;;;5073859;28;20036;-56
2022/04/16 12:11:18;;;;;;;2.92;1.10;;;14.10;79.90;;;;;;5073934;28;20037;-55
2022/04/16 12:13:44;;;;;;;4.03;1.13;;;14.20;79.60;;;;;;5073774;28;20040;-55
2022/04/16 12:16:12;;;;;;;3.17;0.90;;;14.40;83.50;;;;;;5074008;28;20120;-55
2022/04/16 12:18:43;;;;;;;5.07;1.30;;;14.40;81.30;;;;;;5073474;28;20123;-55
2022/04/16 12:21:12;;;;;;;5.07;1.23;;;14.30;81.80;;;;;;5073608;28;20086;-55
2022/04/16 12:23:38;;;;;;;3.00;1.13;;;14.30;79.10;;;;;;5062890;28;20385;-56
2022/04/16 12:26:09;;;;;;;3.25;0.98;;;14.40;79.70;;;;;;5068860;28;20047;-55
2022/04/16 12:28:39;;;;;;;3.70;1.38;;;14.20;75.80;;;;;;5053627;28;20044;-55
2022/04/16 12:31:05;;;;;;;5.60;1.30;;;14.40;77.70;;;;;;5053350;28;20099;-55
2022/04/16 12:33:31;;;;;;;4.20;1.20;;;14.40;77.40;;;;;;5053122;28;20040;-55
2022/04/16 12:35:58;;;;;;;3.25;1.23;;;14.40;75.40;;;;;;5068647;28;20460;-55
2022/04/16 12:38:25;;;;;;;3.67;1.10;;;14.30;73.60;;;;;;5068227;28;20037;-57
2022/04/16 12:41:02;;;;;;;3.13;1.08;;;14.50;72.90;;;;;;5052119;28;20044;-56
2022/04/16 12:43:29;;;;;;;4.10;1.08;;;14.40;74.90;;;;;;5068705;28;20131;-56
2022/04/16 12:45:54;;;;;;;4.95;1.20;;;14.60;76.80;;;;;;5053107;28;20033;-56
2022/04/16 12:48:20;;;;;;;3.25;1.17;;;14.80;74.90;;;;;;5052914;28;20622;-56
2022/04/16 12:50:45;;;;;;;3.30;1.00;;;14.60;75.70;;;;;;5053184;28;20131;-54
2022/04/16 12:53:11;;;;;;;2.30;1.00;;;14.50;70.70;;;;;;5068201;28;20400;-55
2022/04/16 12:55:37;;;;;;;3.20;1.58;;;14.20;69.30;;;;;;5073487;28;20048;-56
2022/04/16 12:58:02;;;;;;;3.28;1.23;;;14.20;72.70;;;;;;5071649;28;20076;-56
2022/04/16 13:00:28;;;;;;;3.22;1.10;;;14.40;73.40;;;;;;5072903;28;20044;-57
2022/04/16 13:02:54;;;;;;;4.38;1.10;;;14.50;74.40;;;;;;5072757;28;20044;-56
2022/04/16 13:05:20;;;;;;;3.05;1.25;;;14.50;72.40;;;;;;5071270;28;20412;-55
2022/04/16 13:07:46;;;;;;;3.90;1.38;;;14.70;76.20;;;;;;5072709;28;20048;-57